Time;durP1;ratioP1;P1;durP2;ratioP2;P2;SDS_P1;SDS_P2;PMS_P1;PMS_P2;Temp;Humidity;BMP_temperature;BMP_pressure;BME280_temperature;BME280_humidity;BME280_pressure;Samples;Min_cycle;Max_cycle;Signal;HPM_P1;HPM_P2
2023/11/01 00:01:37;;;;;;;5.40;1.30;;;;;;;;;;103646;1294;545337;-76
2023/11/01 00:05:15;;;;;;;5.10;1.40;;;;;;;;;;103627;1298;545603;-77
2023/11/01 00:08:54;;;;;;;5.50;1.60;;;;;;;;;;103879;1291;545976;-76
2023/11/01 00:12:30;;;;;;;5.00;1.60;;;;;;;;;;103882;1290;546199;-76
2023/11/01 00:16:07;;;;;;;4.80;1.60;;;;;;;;;;103822;1291;545075;-77
2023/11/01 00:20:14;;;;;;;5.60;1.40;;;;;;;;;;103660;1294;546024;-76
2023/11/01 00:23:32;;;;;;;4.70;1.20;;;;;;;;;;103814;1288;545214;-78
2023/11/01 00:26:59;;;;;;;6.40;1.50;;;;;;;;;;104024;1288;546182;-79
2023/11/01 00:30:46;;;;;;;4.30;1.30;;;;;;;;;;103458;1295;549161;-77
2023/11/01 00:34:15;;;;;;;10.60;1.50;;;;;;;;;;103806;1290;545305;-77
2023/11/01 00:37:53;;;;;;;7.30;1.40;;;;;;;;;;103825;1289;545141;-77
2023/11/01 00:41:30;;;;;;;4.80;1.20;;;;;;;;;;104451;1284;544866;-76
2023/11/01 00:45:08;;;;;;;6.70;2.40;;;;;;;;;;103785;1295;545962;-77
2023/11/01 00:48:45;;;;;;;4.70;1.70;;;;;;;;;;103670;1297;545026;-76
2023/11/01 00:52:23;;;;;;;5.60;1.60;;;;;;;;;;103961;1288;545970;-76
2023/11/01 00:56:01;;;;;;;6.00;1.40;;;;;;;;;;103908;1293;544992;-77
2023/11/01 00:59:37;;;;;;;5.20;1.40;;;;;;;;;;105771;1290;545558;-75
2023/11/01 01:03:15;;;;;;;5.20;1.50;;;;;;;;;;103879;1290;546063;-76
2023/11/01 01:06:52;;;;;;;5.00;1.30;;;;;;;;;;103569;1298;545929;-77
2023/11/01 01:10:26;;;;;;;3.90;1.10;;;;;;;;;;103839;1292;545428;-76
2023/11/01 01:14:07;;;;;;;6.60;1.20;;;;;;;;;;103820;1289;545142;-77
2023/11/01 01:17:44;;;;;;;6.90;1.30;;;;;;;;;;103863;1295;546301;-77
2023/11/01 01:21:24;;;;;;;5.90;1.60;;;;;;;;;;103654;1292;545279;-78
2023/11/01 01:25:00;;;;;;;5.20;1.40;;;;;;;;;;103808;1291;544981;-77
2023/11/01 01:28:40;;;;;;;3.70;1.10;;;;;;;;;;103793;1292;545934;-76
2023/11/01 01:32:16;;;;;;;3.80;1.20;;;;;;;;;;103725;1289;545338;-75
2023/11/01 01:35:52;;;;;;;5.80;1.20;;;;;;;;;;103754;1291;544936;-77
2023/11/01 01:39:29;;;;;;;5.20;1.30;;;;;;;;;;103681;1292;544949;-76
2023/11/01 01:43:17;;;;;;;5.90;1.30;;;;;;;;;;103527;1297;549284;-80
2023/11/01 01:46:45;;;;;;;4.30;1.00;;;;;;;;;;103837;1289;545369;-77
2023/11/01 01:50:22;;;;;;;4.20;1.00;;;;;;;;;;103554;1295;544941;-78
2023/11/01 01:54:00;;;;;;;5.10;1.00;;;;;;;;;;103762;1292;545089;-77
2023/11/01 01:57:42;;;;;;;5.20;1.60;;;;;;;;;;103495;1297;547886;-76
2023/11/01 02:01:14;;;;;;;4.20;1.40;;;;;;;;;;104000;1292;545868;-77
2023/11/01 02:04:52;;;;;;;4.50;1.10;;;;;;;;;;103752;1289;544969;-75
2023/11/01 02:08:30;;;;;;;5.20;1.20;;;;;;;;;;103646;1298;545719;-76
2023/11/01 02:12:07;;;;;;;4.40;1.00;;;;;;;;;;103753;1291;545119;-77
2023/11/01 02:15:45;;;;;;;4.70;1.10;;;;;;;;;;103798;1290;545366;-76
2023/11/01 02:19:23;;;;;;;4.30;1.10;;;;;;;;;;103760;1292;545258;-77
2023/11/01 02:22:59;;;;;;;4.70;1.10;;;;;;;;;;103828;1292;544776;-78
2023/11/01 02:26:37;;;;;;;4.40;1.30;;;;;;;;;;104553;1282;545436;-76
2023/11/01 02:30:16;;;;;;;3.80;1.00;;;;;;;;;;103810;1289;545607;-76
2023/11/01 02:33:51;;;;;;;3.70;1.10;;;;;;;;;;103610;1294;545330;-77
2023/11/01 02:37:33;;;;;;;5.80;1.10;;;;;;;;;;103746;1291;545304;-76
2023/11/01 02:41:06;;;;;;;4.40;1.20;;;;;;;;;;103763;1289;544873;-77
2023/11/01 02:44:44;;;;;;;5.80;1.40;;;;;;;;;;103857;1289;545217;-77
2023/11/01 02:48:21;;;;;;;6.60;1.30;;;;;;;;;;103922;1291;545253;-76
2023/11/01 02:51:59;;;;;;;6.20;1.30;;;;;;;;;;103903;1290;545421;-77
2023/11/01 02:55:37;;;;;;;5.90;1.70;;;;;;;;;;103791;1289;544965;-77
2023/11/01 02:59:17;;;;;;;7.70;1.70;;;;;;;;;;103802;1301;545391;-77
2023/11/01 03:02:53;;;;;;;6.10;1.70;;;;;;;;;;103751;1295;544780;-77
2023/11/01 03:06:29;;;;;;;6.00;2.50;;;;;;;;;;103819;1292;545145;-76
2023/11/01 03:10:23;;;;;;;7.10;2.80;;;;;;;;;;103768;1289;544751;-76
2023/11/01 03:13:44;;;;;;;9.00;3.20;;;;;;;;;;103794;1295;544934;-77
2023/11/01 03:17:27;;;;;;;8.40;2.80;;;;;;;;;;103615;1292;549105;-77
2023/11/01 03:20:58;;;;;;;7.50;2.30;;;;;;;;;;103798;1289;545563;-77
2023/11/01 03:24:35;;;;;;;7.80;2.20;;;;;;;;;;103843;1288;545322;-75
2023/11/01 03:28:13;;;;;;;7.30;1.80;;;;;;;;;;103611;1293;545441;-76
2023/11/01 03:31:52;;;;;;;6.20;1.90;;;;;;;;;;103759;1289;546465;-76
2023/11/01 03:35:28;;;;;;;6.70;1.70;;;;;;;;;;103981;1292;544972;-77
2023/11/01 03:39:04;;;;;;;6.50;3.10;;;;;;;;;;103853;1293;544954;-77
2023/11/01 03:42:44;;;;;;;7.00;2.60;;;;;;;;;;104252;1289;544734;-76
2023/11/01 03:46:21;;;;;;;7.70;2.60;;;;;;;;;;103828;1290;545483;-76
2023/11/01 03:50:19;;;;;;;8.10;3.40;;;;;;;;;;103769;1289;545403;-76
2023/11/01 03:53:40;;;;;;;7.10;3.50;;;;;;;;;;103534;1291;547805;-76
2023/11/01 03:57:12;;;;;;;7.70;3.40;;;;;;;;;;103647;1294;545653;-76
2023/11/01 04:00:51;;;;;;;5.90;2.40;;;;;;;;;;103737;1295;546283;-77
2023/11/01 04:04:35;;;;;;;4.60;1.60;;;;;;;;;;103612;1290;548471;-77
2023/11/01 04:08:05;;;;;;;6.60;1.80;;;;;;;;;;103593;1294;545579;-76
2023/11/01 04:11:43;;;;;;;6.00;1.90;;;;;;;;;;103837;1289;545023;-76
2023/11/01 04:15:21;;;;;;;8.80;2.50;;;;;;;;;;103745;1290;545827;-77
2023/11/01 04:18:58;;;;;;;6.80;2.70;;;;;;;;;;103962;1292;545230;-76
2023/11/01 04:22:32;;;;;;;6.00;2.10;;;;;;;;;;103918;1289;545509;-76
2023/11/01 04:26:12;;;;;;;5.90;1.90;;;;;;;;;;103777;1288;545367;-75
2023/11/01 04:29:54;;;;;;;7.00;2.10;;;;;;;;;;103915;1291;545475;-77
2023/11/01 04:33:28;;;;;;;6.70;2.50;;;;;;;;;;103817;1289;546798;-77
2023/11/01 04:37:05;;;;;;;6.50;2.70;;;;;;;;;;103555;1293;544859;-76
2023/11/01 04:40:42;;;;;;;5.90;2.40;;;;;;;;;;104033;1292;544923;-76
2023/11/01 04:44:20;;;;;;;7.00;2.70;;;;;;;;;;103717;1290;544878;-76
2023/11/01 04:47:57;;;;;;;6.80;2.20;;;;;;;;;;103912;1289;545450;-76
2023/11/01 04:51:31;;;;;;;6.50;2.30;;;;;;;;;;103807;1289;545394;-77
2023/11/01 04:55:09;;;;;;;6.90;2.40;;;;;;;;;;103941;1290;545322;-76
2023/11/01 04:58:53;;;;;;;8.00;2.40;;;;;;;;;;103980;1288;545542;-77
2023/11/01 05:02:30;;;;;;;5.70;1.90;;;;;;;;;;103792;1292;545056;-75
2023/11/01 05:06:07;;;;;;;5.70;1.80;;;;;;;;;;103770;1296;545437;-77
2023/11/01 05:09:44;;;;;;;5.40;2.40;;;;;;;;;;103759;1289;545517;-76
2023/11/01 05:13:24;;;;;;;7.00;2.80;;;;;;;;;;103821;1292;545238;-77
2023/11/01 05:16:59;;;;;;;8.70;2.70;;;;;;;;;;104178;1289;544974;-77
2023/11/01 05:20:38;;;;;;;7.30;2.60;;;;;;;;;;103830;1292;544752;-77
2023/11/01 05:24:14;;;;;;;7.70;3.00;;;;;;;;;;104034;1292;545996;-76
2023/11/01 05:27:52;;;;;;;8.00;3.30;;;;;;;;;;103883;1291;544821;-76
2023/11/01 05:31:32;;;;;;;7.10;3.20;;;;;;;;;;103820;1291;545358;-76
2023/11/01 05:35:08;;;;;;;7.30;3.10;;;;;;;;;;103574;1297;544897;-75
2023/11/01 05:38:54;;;;;;;;;;;;;;;;;;;;;
2023/11/01 05:42:22;;;;;;;6.40;2.70;;;;;;;;;;103877;1289;544793;-76
2023/11/01 05:46:00;;;;;;;7.70;2.90;;;;;;;;;;103892;1289;544763;-77
2023/11/01 05:49:39;;;;;;;5.90;2.60;;;;;;;;;;103813;1291;545214;-77
2023/11/01 05:53:15;;;;;;;5.20;2.30;;;;;;;;;;103792;1289;545373;-77
2023/11/01 05:56:55;;;;;;;6.60;2.10;;;;;;;;;;103669;1290;549483;-74
2023/11/01 06:00:29;;;;;;;5.40;2.40;;;;;;;;;;103932;1288;545074;-75
2023/11/01 06:04:06;;;;;;;6.90;2.70;;;;;;;;;;103924;1291;545594;-77
2023/11/01 06:07:49;;;;;;;6.90;2.80;;;;;;;;;;103590;1291;547794;-77
2023/11/01 06:11:22;;;;;;;5.90;2.40;;;;;;;;;;104016;1289;545734;-76
2023/11/01 06:14:59;;;;;;;5.90;2.10;;;;;;;;;;103927;1303;545604;-76
2023/11/01 06:18:37;;;;;;;5.00;1.80;;;;;;;;;;104296;1283;545023;-77
2023/11/01 06:22:18;;;;;;;4.20;1.90;;;;;;;;;;103846;1291;545027;-77
2023/11/01 06:25:53;;;;;;;4.90;2.20;;;;;;;;;;103819;1302;544987;-77
2023/11/01 06:29:28;;;;;;;4.50;2.10;;;;;;;;;;103801;1295;545423;-77
2023/11/01 06:33:06;;;;;;;4.90;1.80;;;;;;;;;;104300;1288;544770;-77
2023/11/01 06:36:45;;;;;;;7.80;1.90;;;;;;;;;;103754;1291;544990;-77
2023/11/01 06:40:29;;;;;;;6.00;2.50;;;;;;;;;;103699;1292;547943;-78
2023/11/01 06:43:59;;;;;;;7.00;3.00;;;;;;;;;;103931;1291;545051;-77
2023/11/01 06:47:40;;;;;;;6.40;2.70;;;;;;;;;;103689;1290;546174;-77
2023/11/01 06:51:14;;;;;;;6.40;2.50;;;;;;;;;;103901;1292;544724;-75
2023/11/01 06:54:50;;;;;;;4.50;2.10;;;;;;;;;;103835;1291;545524;-77
2023/11/01 06:58:29;;;;;;;6.30;2.30;;;;;;;;;;103486;1289;545113;-77
2023/11/01 07:02:07;;;;;;;6.10;3.00;;;;;;;;;;103944;1288;545660;-76
2023/11/01 07:05:43;;;;;;;7.40;3.90;;;;;;;;;;103866;1292;545480;-77
2023/11/01 07:09:17;;;;;;;6.90;3.80;;;;;;;;;;103771;1292;545181;-77
2023/11/01 07:13:22;;;;;;;7.60;3.30;;;;;;;;;;103706;1292;547908;-77
2023/11/01 07:16:41;;;;;;;7.30;2.90;;;;;;;;;;103840;1301;544919;-77
2023/11/01 07:20:14;;;;;;;8.90;5.00;;;;;;;;;;104095;1288;544795;-77
2023/11/01 07:23:51;;;;;;;11.50;4.50;;;;;;;;;;103998;1289;545972;-77
2023/11/01 07:27:28;;;;;;;6.20;2.80;;;;;;;;;;103894;1292;545066;-77
2023/11/01 07:31:10;;;;;;;8.80;3.70;;;;;;;;;;104158;1290;544771;-77
2023/11/01 07:34:43;;;;;;;7.70;3.90;;;;;;;;;;103613;1295;545425;-77
2023/11/01 07:38:21;;;;;;;7.50;3.30;;;;;;;;;;103738;1295;544983;-77
2023/11/01 07:42:00;;;;;;;7.30;3.00;;;;;;;;;;103757;1295;547958;-75
2023/11/01 07:45:35;;;;;;;6.60;3.00;;;;;;;;;;103792;1292;546126;-77
2023/11/01 07:49:14;;;;;;;6.60;2.50;;;;;;;;;;103746;1299;546179;-75
2023/11/01 07:52:50;;;;;;;5.90;2.60;;;;;;;;;;103762;1292;544967;-76
2023/11/01 07:56:28;;;;;;;6.10;2.50;;;;;;;;;;103743;1294;544863;-78
2023/11/01 08:00:07;;;;;;;6.50;2.50;;;;;;;;;;103749;1289;544963;-77
2023/11/01 08:03:43;;;;;;;6.50;2.60;;;;;;;;;;104352;1285;544813;-78
2023/11/01 08:07:43;;;;;;;5.10;2.20;;;;;;;;;;103469;1292;544926;-78
2023/11/01 08:11:04;;;;;;;7.40;2.60;;;;;;;;;;103886;1289;545878;-78
2023/11/01 08:14:37;;;;;;;7.70;2.70;;;;;;;;;;103771;1291;546336;-77
2023/11/01 08:18:18;;;;;;;7.80;2.80;;;;;;;;;;103650;1295;548083;-78
2023/11/01 08:22:12;;;;;;;6.30;2.10;;;;;;;;;;103773;1292;544605;-77
2023/11/01 08:25:35;;;;;;;5.90;2.40;;;;;;;;;;104034;1289;544968;-79
2023/11/01 08:29:11;;;;;;;7.00;2.60;;;;;;;;;;103858;1291;544799;-78
2023/11/01 08:32:57;;;;;;;6.90;2.80;;;;;;;;;;104150;1285;547976;-78
2023/11/01 08:36:26;;;;;;;7.00;3.00;;;;;;;;;;104213;1285;545155;-77
2023/11/01 08:40:24;;;;;;;6.00;2.80;;;;;;;;;;103985;1289;544733;-79
2023/11/01 08:43:47;;;;;;;5.80;2.20;;;;;;;;;;103624;1292;547956;-78
2023/11/01 08:47:35;;;;;;;6.10;1.90;;;;;;;;;;104197;1285;544713;-78
2023/11/01 08:51:00;;;;;;;5.70;2.30;;;;;;;;;;103588;1294;548124;-78
2023/11/01 08:54:33;;;;;;;6.50;2.50;;;;;;;;;;103721;1294;545095;-78
2023/11/01 08:58:35;;;;;;;5.30;1.90;;;;;;;;;;104458;1282;545587;-78
2023/11/01 09:01:59;;;;;;;4.90;2.00;;;;;;;;;;103698;1293;545249;-80
2023/11/01 09:05:26;;;;;;;5.20;2.20;;;;;;;;;;104193;1285;546021;-81
2023/11/01 09:09:15;;;;;;;6.00;2.20;;;;;;;;;;103720;1294;549152;-82
2023/11/01 09:12:50;;;;;;;5.00;2.10;;;;;;;;;;103673;1295;548077;-80
2023/11/01 09:16:32;;;;;;;6.50;2.60;;;;;;;;;;104433;1292;546748;-78
2023/11/01 09:19:56;;;;;;;7.00;2.90;;;;;;;;;;103803;1291;544858;-77
2023/11/01 09:23:51;;;;;;;8.40;3.00;;;;;;;;;;103593;1297;545380;-79
2023/11/01 09:27:17;;;;;;;6.20;2.40;;;;;;;;;;103815;1289;549656;-78
2023/11/01 09:31:08;;;;;;;4.80;2.30;;;;;;;;;;103824;1291;545865;-79
2023/11/01 09:34:34;;;;;;;7.00;2.60;;;;;;;;;;104008;1290;545636;-78
2023/11/01 09:38:09;;;;;;;6.70;1.90;;;;;;;;;;103638;1292;548156;-76
2023/11/01 09:41:48;;;;;;;6.10;2.00;;;;;;;;;;104297;1283;549331;-79
2023/11/01 09:45:19;;;;;;;5.50;1.90;;;;;;;;;;103719;1292;545584;-79
2023/11/01 09:49:04;;;;;;;5.80;2.00;;;;;;;;;;103380;1294;547886;-80
2023/11/01 09:52:46;;;;;;;5.00;2.00;;;;;;;;;;103644;1297;549333;-79
2023/11/01 09:56:07;;;;;;;5.70;2.20;;;;;;;;;;104023;1289;545276;-80
2023/11/01 09:59:57;;;;;;;5.40;1.90;;;;;;;;;;103585;1292;547928;-75
2023/11/01 10:03:26;;;;;;;5.20;1.90;;;;;;;;;;103717;1294;545175;-78
2023/11/01 10:07:10;;;;;;;5.40;2.00;;;;;;;;;;104225;1284;548058;-79
2023/11/01 10:10:41;;;;;;;6.40;1.90;;;;;;;;;;103736;1290;544924;-78
2023/11/01 10:14:28;;;;;;;4.80;1.90;;;;;;;;;;103939;1288;544969;-78
2023/11/01 10:17:55;;;;;;;5.60;1.90;;;;;;;;;;103731;1296;544981;-78
2023/11/01 10:21:36;;;;;;;4.80;1.80;;;;;;;;;;103660;1291;547958;-78
2023/11/01 10:25:21;;;;;;;5.20;2.00;;;;;;;;;;103504;1295;545080;-79
2023/11/01 10:28:49;;;;;;;4.90;1.80;;;;;;;;;;103731;1292;545546;-77
2023/11/01 10:32:25;;;;;;;4.60;1.80;;;;;;;;;;103766;1292;545000;-78
2023/11/01 10:36:09;;;;;;;4.40;1.50;;;;;;;;;;103694;1292;547876;-77
2023/11/01 10:39:56;;;;;;;4.60;1.70;;;;;;;;;;103833;1288;545078;-78
2023/11/01 10:43:19;;;;;;;6.10;1.90;;;;;;;;;;103627;1295;545652;-78
2023/11/01 10:46:59;;;;;;;5.20;1.60;;;;;;;;;;103630;1290;549489;-78
2023/11/01 10:50:34;;;;;;;4.50;1.70;;;;;;;;;;103842;1289;545352;-76
2023/11/01 10:54:11;;;;;;;4.10;1.60;;;;;;;;;;103759;1292;545175;-78
2023/11/01 10:57:49;;;;;;;3.70;1.50;;;;;;;;;;103743;1291;546011;-77
2023/11/01 11:01:32;;;;;;;4.20;2.10;;;;;;;;;;103818;1292;545051;-76
2023/11/01 11:05:04;;;;;;;4.60;1.70;;;;;;;;;;103818;1288;545012;-77
2023/11/01 11:08:39;;;;;;;4.00;1.50;;;;;;;;;;103764;1292;544995;-77
2023/11/01 11:12:20;;;;;;;4.10;1.50;;;;;;;;;;103792;1291;545122;-78
2023/11/01 11:16:01;;;;;;;4.30;1.70;;;;;;;;;;103737;1290;545291;-77
2023/11/01 11:19:51;;;;;;;4.20;1.60;;;;;;;;;;103742;1292;545004;-76
2023/11/01 11:23:17;;;;;;;4.80;1.50;;;;;;;;;;103591;1292;547821;-75
2023/11/01 11:26:47;;;;;;;5.70;1.60;;;;;;;;;;103928;1292;544727;-78
2023/11/01 11:30:43;;;;;;;6.50;1.60;;;;;;;;;;104298;1282;544977;-77
2023/11/01 11:34:12;;;;;;;4.10;1.30;;;;;;;;;;103304;1295;545004;-76
2023/11/01 11:37:45;;;;;;;5.20;1.60;;;;;;;;;;103642;1291;548066;-79
2023/11/01 11:41:22;;;;;;;5.60;1.90;;;;;;;;;;103481;1294;547757;-78
2023/11/01 11:45:00;;;;;;;6.40;1.90;;;;;;;;;;104328;1286;545090;-78
2023/11/01 11:48:42;;;;;;;4.20;1.30;;;;;;;;;;103857;1288;544920;-78
2023/11/01 11:52:15;;;;;;;6.10;2.10;;;;;;;;;;104496;1282;545807;-76
2023/11/01 11:55:49;;;;;;;5.70;1.80;;;;;;;;;;103733;1294;545438;-77
2023/11/01 11:59:31;;;;;;;3.30;1.40;;;;;;;;;;103956;1295;549501;-76
2023/11/01 12:03:02;;;;;;;4.30;1.40;;;;;;;;;;103746;1297;545481;-77
2023/11/01 12:07:01;;;;;;;4.30;1.20;;;;;;;;;;103776;1292;545133;-77
2023/11/01 12:10:16;;;;;;;5.00;1.60;;;;;;;;;;103798;1292;545006;-78
2023/11/01 12:13:50;;;;;;;4.10;1.50;;;;;;;;;;103842;1292;544763;-77
2023/11/01 12:17:33;;;;;;;5.60;2.00;;;;;;;;;;104281;1285;546078;-77
2023/11/01 12:21:12;;;;;;;6.60;1.70;;;;;;;;;;103757;1302;545431;-79
2023/11/01 12:24:55;;;;;;;5.90;2.00;;;;;;;;;;103767;1289;545009;-76
2023/11/01 12:28:25;;;;;;;6.00;1.70;;;;;;;;;;103729;1291;546395;-77
2023/11/01 12:32:11;;;;;;;8.00;2.20;;;;;;;;;;103600;1292;547792;-81
2023/11/01 12:35:44;;;;;;;7.00;2.30;;;;;;;;;;103520;1294;549776;-76
2023/11/01 12:39:16;;;;;;;5.40;1.80;;;;;;;;;;103788;1290;545139;-79
2023/11/01 12:43:05;;;;;;;5.90;2.00;;;;;;;;;;104306;1285;544725;-78
2023/11/01 12:46:27;;;;;;;5.40;2.00;;;;;;;;;;103912;1292;544866;-78
2023/11/01 12:50:05;;;;;;;6.70;1.90;;;;;;;;;;104007;1292;545126;-78
2023/11/01 12:53:45;;;;;;;5.50;1.80;;;;;;;;;;103822;1292;545009;-76
2023/11/01 12:57:26;;;;;;;4.90;1.70;;;;;;;;;;103722;1292;545004;-77
2023/11/01 13:01:01;;;;;;;4.00;1.60;;;;;;;;;;103766;1291;545063;-75
2023/11/01 13:04:38;;;;;;;4.60;1.60;;;;;;;;;;103899;1289;546040;-77
2023/11/01 13:08:16;;;;;;;6.90;2.20;;;;;;;;;;104448;1285;544987;-77
2023/11/01 13:11:55;;;;;;;5.90;2.20;;;;;;;;;;103730;1296;545000;-77
2023/11/01 13:15:31;;;;;;;5.90;2.30;;;;;;;;;;104169;1289;545322;-77
2023/11/01 13:19:09;;;;;;;7.40;2.60;;;;;;;;;;103569;1298;544869;-76
2023/11/01 13:22:46;;;;;;;6.50;2.30;;;;;;;;;;103802;1292;545407;-75
2023/11/01 13:26:32;;;;;;;6.60;1.90;;;;;;;;;;104460;1286;545233;-79
2023/11/01 13:30:00;;;;;;;6.40;2.10;;;;;;;;;;103628;1295;545101;-77
2023/11/01 13:33:40;;;;;;;5.30;2.40;;;;;;;;;;104139;1292;545341;-78
2023/11/01 13:37:17;;;;;;;7.40;2.10;;;;;;;;;;103767;1292;545146;-77
2023/11/01 13:40:53;;;;;;;6.70;2.50;;;;;;;;;;103795;1291;544780;-75
2023/11/01 13:44:30;;;;;;;8.20;2.90;;;;;;;;;;103842;1295;545909;-77
2023/11/01 13:48:08;;;;;;;8.20;3.60;;;;;;;;;;103571;1293;545690;-78
2023/11/01 13:51:53;;;;;;;9.80;3.30;;;;;;;;;;104463;1291;548289;-77
2023/11/01 13:55:22;;;;;;;7.10;2.90;;;;;;;;;;104237;1288;545826;-75
2023/11/01 13:59:01;;;;;;;6.10;2.00;;;;;;;;;;103756;1294;544997;-77
2023/11/01 14:02:38;;;;;;;8.60;2.80;;;;;;;;;;103891;1290;544980;-77
2023/11/01 14:06:21;;;;;;;10.80;4.20;;;;;;;;;;104018;1289;545958;-77
2023/11/01 14:09:55;;;;;;;9.80;4.50;;;;;;;;;;103562;1295;545296;-75
2023/11/01 14:13:30;;;;;;;13.00;5.00;;;;;;;;;;103768;1292;545427;-77
2023/11/01 14:17:08;;;;;;;11.00;4.00;;;;;;;;;;103776;1295;545403;-77
2023/11/01 14:20:50;;;;;;;11.30;4.10;;;;;;;;;;103832;1289;545296;-77
2023/11/01 14:24:31;;;;;;;10.30;4.30;;;;;;;;;;103506;1305;547917;-78
2023/11/01 14:28:29;;;;;;;7.60;3.10;;;;;;;;;;103626;1292;546341;-76
2023/11/01 14:31:39;;;;;;;7.60;2.70;;;;;;;;;;103713;1292;545686;-75
2023/11/01 14:35:15;;;;;;;8.00;2.90;;;;;;;;;;103787;1292;545092;-76
2023/11/01 14:38:52;;;;;;;7.00;2.60;;;;;;;;;;103662;1295;544928;-76
2023/11/01 14:42:30;;;;;;;8.30;2.80;;;;;;;;;;103787;1289;544738;-78
2023/11/01 14:46:15;;;;;;;8.40;2.80;;;;;;;;;;103426;1298;547971;-77
2023/11/01 14:49:45;;;;;;;6.90;2.80;;;;;;;;;;103796;1291;544944;-76
2023/11/01 14:53:22;;;;;;;7.80;2.80;;;;;;;;;;103577;1295;544792;-76
2023/11/01 14:56:56;;;;;;;7.70;3.20;;;;;;;;;;104626;1286;544772;-76
2023/11/01 15:00:42;;;;;;;7.90;3.50;;;;;;;;;;103676;1292;546307;-78
2023/11/01 15:04:17;;;;;;;8.30;3.90;;;;;;;;;;103846;1289;544875;-77
2023/11/01 15:07:49;;;;;;;8.30;3.80;;;;;;;;;;103972;1292;545113;-76
2023/11/01 15:11:31;;;;;;;9.60;4.50;;;;;;;;;;103559;1295;545995;-77
2023/11/01 15:15:28;;;;;;;8.40;3.80;;;;;;;;;;103677;1290;544902;-77
2023/11/01 15:18:44;;;;;;;8.10;3.30;;;;;;;;;;103910;1289;546150;-77
2023/11/01 15:22:23;;;;;;;7.90;3.40;;;;;;;;;;103744;1295;545801;-76
2023/11/01 15:26:07;;;;;;;9.00;3.80;;;;;;;;;;103260;1300;547177;-77
2023/11/01 15:29:38;;;;;;;9.20;4.70;;;;;;;;;;103620;1293;545058;-77
2023/11/01 15:33:16;;;;;;;10.20;5.30;;;;;;;;;;103967;1288;545891;-76
2023/11/01 15:36:51;;;;;;;12.10;5.70;;;;;;;;;;103887;1302;544777;-76
2023/11/01 15:40:35;;;;;;;11.00;6.10;;;;;;;;;;104181;1285;545122;-75
2023/11/01 15:44:13;;;;;;;13.00;6.90;;;;;;;;;;103694;1298;545028;-76
2023/11/01 15:47:47;;;;;;;14.70;7.60;;;;;;;;;;103766;1302;545141;-74
2023/11/01 15:51:24;;;;;;;17.20;8.90;;;;;;;;;;103767;1292;545479;-77
2023/11/01 15:54:59;;;;;;;15.90;9.80;;;;;;;;;;103774;1291;545243;-76
2023/11/01 15:58:38;;;;;;;16.90;9.90;;;;;;;;;;103725;1292;544806;-75
2023/11/01 16:02:14;;;;;;;16.60;10.10;;;;;;;;;;103725;1292;545015;-76
2023/11/01 16:05:51;;;;;;;16.10;9.60;;;;;;;;;;103912;1289;545202;-76
2023/11/01 16:09:29;;;;;;;14.80;8.20;;;;;;;;;;103703;1291;545002;-76
2023/11/01 16:13:06;;;;;;;15.40;9.50;;;;;;;;;;104427;1289;545566;-78
2023/11/01 16:16:43;;;;;;;14.00;8.30;;;;;;;;;;104064;1292;544997;-77
2023/11/01 16:20:28;;;;;;;15.80;9.50;;;;;;;;;;103868;1289;545076;-75
2023/11/01 16:24:05;;;;;;;15.60;10.00;;;;;;;;;;103872;1289;545328;-78
2023/11/01 16:27:42;;;;;;;15.70;10.50;;;;;;;;;;103756;1292;544831;-77
2023/11/01 16:31:20;;;;;;;15.20;10.30;;;;;;;;;;103746;1295;547147;-76
2023/11/01 16:34:57;;;;;;;14.60;8.90;;;;;;;;;;103984;1289;545199;-76
2023/11/01 16:38:35;;;;;;;13.80;8.60;;;;;;;;;;103725;1289;545980;-75
2023/11/01 16:42:13;;;;;;;14.70;9.00;;;;;;;;;;103754;1291;545463;-77
2023/11/01 16:45:49;;;;;;;14.40;9.00;;;;;;;;;;103842;1295;544828;-76
2023/11/01 16:49:27;;;;;;;14.60;9.00;;;;;;;;;;103792;1292;545708;-77
2023/11/01 16:53:27;;;;;;;14.40;9.30;;;;;;;;;;103689;1294;547977;-80
2023/11/01 16:56:42;;;;;;;15.10;8.90;;;;;;;;;;103715;1291;545183;-76
2023/11/01 17:00:19;;;;;;;13.80;8.60;;;;;;;;;;103755;1295;545655;-77
2023/11/01 17:03:57;;;;;;;14.20;10.00;;;;;;;;;;103776;1291;544762;-76
2023/11/01 17:07:35;;;;;;;15.80;9.70;;;;;;;;;;103794;1291;544737;-77
2023/11/01 17:11:11;;;;;;;16.80;9.30;;;;;;;;;;103451;1295;545039;-77
2023/11/01 17:14:50;;;;;;;17.80;10.10;;;;;;;;;;103877;1291;544818;-76
2023/11/01 17:18:27;;;;;;;18.50;11.10;;;;;;;;;;103728;1291;544921;-76
2023/11/01 17:22:05;;;;;;;17.60;10.70;;;;;;;;;;103805;1288;545381;-75
2023/11/01 17:25:45;;;;;;;17.60;10.60;;;;;;;;;;103859;1288;544916;-80
2023/11/01 17:29:26;;;;;;;15.50;8.50;;;;;;;;;;103689;1291;548856;-76
2023/11/01 17:33:22;;;;;;;16.00;8.00;;;;;;;;;;103884;1292;549164;-80
2023/11/01 17:36:43;;;;;;;14.90;7.90;;;;;;;;;;103781;1297;545731;-75
2023/11/01 17:40:12;;;;;;;12.80;7.70;;;;;;;;;;103770;1295;545274;-76
2023/11/01 17:43:53;;;;;;;16.80;8.80;;;;;;;;;;103882;1289;545515;-76
2023/11/01 17:47:28;;;;;;;13.60;8.00;;;;;;;;;;103749;1294;545384;-77
2023/11/01 17:51:03;;;;;;;14.70;8.60;;;;;;;;;;103628;1295;545438;-76
2023/11/01 17:54:41;;;;;;;18.00;9.40;;;;;;;;;;103718;1291;545141;-78
2023/11/01 17:58:18;;;;;;;18.90;11.10;;;;;;;;;;103734;1292;544835;-77
2023/11/01 18:01:56;;;;;;;18.60;11.20;;;;;;;;;;103849;1289;545200;-78
2023/11/01 18:05:35;;;;;;;19.10;11.40;;;;;;;;;;104016;1288;544963;-78
2023/11/01 18:09:16;;;;;;;20.20;11.40;;;;;;;;;;103877;1292;544825;-78
2023/11/01 18:12:48;;;;;;;21.90;12.00;;;;;;;;;;103838;1295;544739;-73
2023/11/01 18:16:29;;;;;;;20.70;11.30;;;;;;;;;;104472;1288;545400;-75
2023/11/01 18:20:11;;;;;;;19.60;11.00;;;;;;;;;;104158;1289;545398;-77
2023/11/01 18:23:49;;;;;;;17.80;9.20;;;;;;;;;;103810;1293;547991;-76
2023/11/01 18:27:20;;;;;;;14.50;7.90;;;;;;;;;;103796;1291;545553;-76
2023/11/01 18:30:59;;;;;;;15.20;8.60;;;;;;;;;;103791;1291;544956;-74
2023/11/01 18:34:37;;;;;;;19.10;9.10;;;;;;;;;;103815;1291;545092;-75
2023/11/01 18:38:14;;;;;;;15.20;8.30;;;;;;;;;;103847;1288;544798;-79
2023/11/01 18:41:54;;;;;;;13.60;6.60;;;;;;;;;;104037;1288;545294;-75
2023/11/01 18:45:22;;;;;;;12.80;5.70;;;;;;;;;;103814;1289;544919;-75
2023/11/01 18:49:05;;;;;;;11.00;4.90;;;;;;;;;;103790;1289;545314;-74
2023/11/01 18:52:44;;;;;;;12.80;5.40;;;;;;;;;;103716;1293;547993;-77
2023/11/01 18:56:20;;;;;;;12.10;5.40;;;;;;;;;;103628;1294;544711;-76
2023/11/01 18:59:56;;;;;;;11.20;4.90;;;;;;;;;;103850;1290;545374;-76
2023/11/01 19:03:34;;;;;;;11.70;4.60;;;;;;;;;;103920;1289;545455;-77
2023/11/01 19:07:12;;;;;;;9.30;4.10;;;;;;;;;;103756;1291;545629;-75
2023/11/01 19:10:50;;;;;;;10.30;4.70;;;;;;;;;;103854;1289;545785;-78
2023/11/01 19:14:26;;;;;;;12.00;5.30;;;;;;;;;;103785;1289;544834;-76
2023/11/01 19:18:22;;;;;;;9.40;4.10;;;;;;;;;;103691;1294;547953;-76
2023/11/01 19:21:41;;;;;;;10.20;4.10;;;;;;;;;;103757;1304;545248;-77
2023/11/01 19:25:19;;;;;;;9.40;4.00;;;;;;;;;;104054;1291;545567;-75
2023/11/01 19:28:51;;;;;;;9.40;4.50;;;;;;;;;;103874;1289;544765;-78
2023/11/01 19:32:35;;;;;;;9.20;4.30;;;;;;;;;;103430;1294;546256;-75
2023/11/01 19:36:11;;;;;;;9.80;4.10;;;;;;;;;;103839;1292;544755;-77
2023/11/01 19:39:48;;;;;;;9.50;3.70;;;;;;;;;;103838;1292;545027;-75
2023/11/01 19:43:28;;;;;;;8.50;3.80;;;;;;;;;;103756;1289;545101;-77
2023/11/01 19:47:03;;;;;;;8.30;3.60;;;;;;;;;;104245;1286;544734;-77
2023/11/01 19:50:40;;;;;;;8.00;3.30;;;;;;;;;;103654;1295;545865;-76
2023/11/01 19:54:18;;;;;;;9.00;2.90;;;;;;;;;;103900;1293;545373;-75
2023/11/01 19:58:01;;;;;;;6.70;2.30;;;;;;;;;;104114;1286;549133;-80
2023/11/01 20:01:32;;;;;;;6.90;2.40;;;;;;;;;;103875;1288;545633;-77
2023/11/01 20:05:12;;;;;;;7.50;2.50;;;;;;;;;;103735;1295;546159;-78
2023/11/01 20:08:50;;;;;;;7.60;2.50;;;;;;;;;;103792;1290;545201;-79
2023/11/01 20:12:25;;;;;;;6.00;2.20;;;;;;;;;;104574;1282;544968;-76
2023/11/01 20:16:03;;;;;;;6.70;2.40;;;;;;;;;;103810;1289;544818;-76
2023/11/01 20:19:40;;;;;;;8.00;2.90;;;;;;;;;;103870;1294;544992;-76
2023/11/01 20:23:17;;;;;;;8.10;2.90;;;;;;;;;;103805;1291;545740;-75
2023/11/01 20:26:54;;;;;;;7.60;2.90;;;;;;;;;;103782;1292;545050;-78
2023/11/01 20:30:48;;;;;;;7.30;2.60;;;;;;;;;;103704;1294;548008;-79
2023/11/01 20:34:19;;;;;;;6.60;2.60;;;;;;;;;;103644;1292;550249;-78
2023/11/01 20:37:47;;;;;;;5.80;2.10;;;;;;;;;;103843;1289;545068;-77
2023/11/01 20:41:46;;;;;;;5.50;2.10;;;;;;;;;;103606;1292;545107;-78
2023/11/01 20:45:02;;;;;;;6.20;1.80;;;;;;;;;;104165;1283;546076;-76
2023/11/01 20:48:40;;;;;;;4.90;1.80;;;;;;;;;;104059;1289;545162;-76
2023/11/01 20:52:42;;;;;;;5.50;1.80;;;;;;;;;;103709;1295;547977;-76
2023/11/01 20:55:55;;;;;;;5.30;2.00;;;;;;;;;;103664;1295;544974;-76
2023/11/01 20:59:36;;;;;;;5.80;1.80;;;;;;;;;;103756;1290;545084;-76
2023/11/01 21:03:17;;;;;;;5.40;2.00;;;;;;;;;;103511;1292;547921;-77